DAL424 KSFO-KLAX
Flight info
| Callsign | DAL424 |
|---|---|
| Flight time | 0h 49m |
| Altitude | 33000 |
| Route | WESLA5 SUSEY EBAYE BURGL IRNMN2 |
| Aircraft | MD82/M-SDFGIRWY/C |
Departure
| Time | 2026-04-22 03:06 |
|---|---|
| Airport | San Francisco International Airport (KSFO) |
Arrival
| Time | 2026-04-22 03:56 |
|---|---|
| Airport | Los Angeles International Airport (KLAX) |
| Time | Latitude | Longitude | Altitude | Speed | Heading |
|---|---|---|---|---|---|
| 2026-04-22 02:37 | 37.61430 | -122.38277 | 31 ft | 0 kts | 27° |
| 2026-04-22 02:45 | 37.61417 | -122.38285 | 31 ft | 2 kts | 28° |
| 2026-04-22 02:45 | 37.61404 | -122.38295 | 31 ft | 2 kts | 39° |
| 2026-04-22 02:45 | 37.61393 | -122.38308 | 31 ft | 2 kts | 45° |
| 2026-04-22 02:46 | 37.61383 | -122.38321 | 31 ft | 1 kts | 52° |
| 2026-04-22 02:46 | 37.61380 | -122.38327 | 31 ft | 0 kts | 54° |
| 2026-04-22 02:57 | 37.61380 | -122.38305 | 31 ft | 7 kts | 108° |
| 2026-04-22 02:57 | 37.61354 | -122.38242 | 31 ft | 8 kts | 111° |
| 2026-04-22 02:57 | 37.61360 | -122.38180 | 31 ft | 6 kts | 57° |
| 2026-04-22 02:57 | 37.61386 | -122.38151 | 31 ft | 5 kts | 34° |
| 2026-04-22 02:58 | 37.61454 | -122.38101 | 31 ft | 14 kts | 28° |
| 2026-04-22 02:58 | 37.61536 | -122.38047 | 31 ft | 12 kts | 28° |
| 2026-04-22 02:58 | 37.61604 | -122.38002 | 31 ft | 9 kts | 27° |
| 2026-04-22 02:58 | 37.61655 | -122.37966 | 30 ft | 7 kts | 38° |
| 2026-04-22 02:59 | 37.61679 | -122.37907 | 29 ft | 9 kts | 92° |
| 2026-04-22 02:59 | 37.61669 | -122.37817 | 27 ft | 11 kts | 98° |
| 2026-04-22 02:59 | 37.61658 | -122.37707 | 25 ft | 13 kts | 97° |
| 2026-04-22 02:59 | 37.61644 | -122.37572 | 21 ft | 17 kts | 97° |
| 2026-04-22 03:00 | 37.61629 | -122.37419 | 16 ft | 17 kts | 97° |
| 2026-04-22 03:00 | 37.61614 | -122.37276 | 14 ft | 15 kts | 99° |
| 2026-04-22 03:00 | 37.61571 | -122.37159 | 12 ft | 14 kts | 119° |
| 2026-04-22 03:00 | 37.61528 | -122.37059 | 11 ft | 11 kts | 117° |
| 2026-04-22 03:01 | 37.61496 | -122.36981 | 11 ft | 8 kts | 117° |
| 2026-04-22 03:01 | 37.61436 | -122.36881 | 11 ft | 22 kts | 133° |
| 2026-04-22 03:01 | 37.61340 | -122.36718 | 11 ft | 22 kts | 118° |
| 2026-04-22 03:01 | 37.61268 | -122.36554 | 10 ft | 20 kts | 117° |
| 2026-04-22 03:02 | 37.61209 | -122.36407 | 9 ft | 17 kts | 118° |
| 2026-04-22 03:02 | 37.61153 | -122.36277 | 8 ft | 15 kts | 119° |
| 2026-04-22 03:02 | 37.61107 | -122.36169 | 8 ft | 12 kts | 119° |
| 2026-04-22 03:02 | 37.61072 | -122.36085 | 8 ft | 9 kts | 116° |
| 2026-04-22 03:03 | 37.61052 | -122.36020 | 8 ft | 6 kts | 101° |
| 2026-04-22 03:03 | 37.61052 | -122.35976 | 8 ft | 3 kts | 80° |
| 2026-04-22 03:03 | 37.61061 | -122.35948 | 8 ft | 3 kts | 57° |
| 2026-04-22 03:03 | 37.61070 | -122.35932 | 8 ft | 0 kts | 49° |
| 2026-04-22 03:04 | 37.61071 | -122.35932 | 8 ft | 0 kts | 49° |
| 2026-04-22 03:04 | 37.61102 | -122.35897 | 8 ft | 23 kts | 34° |
| 2026-04-22 03:05 | 37.61146 | -122.35878 | 8 ft | 4 kts | 2° |
| 2026-04-22 03:05 | 37.61178 | -122.35885 | 8 ft | 7 kts | 336° |
| 2026-04-22 03:05 | 37.61204 | -122.35919 | 8 ft | 7 kts | 302° |
| 2026-04-22 03:05 | 37.61311 | -122.36175 | 8 ft | 71 kts | 298° |
| 2026-04-22 03:06 | 37.61689 | -122.37067 | 15 ft | 154 kts | 296° |
| 2026-04-22 03:06 | 37.62251 | -122.38409 | 576 ft | 186 kts | 297° |
| 2026-04-22 03:06 | 37.62810 | -122.39756 | 1847 ft | 178 kts | 298° |
| 2026-04-22 03:06 | 37.63465 | -122.41265 | 1924 ft | 202 kts | 300° |
| 2026-04-22 03:07 | 37.64195 | -122.42899 | 2181 ft | 229 kts | 300° |
| 2026-04-22 03:07 | 37.64955 | -122.44645 | 3258 ft | 231 kts | 301° |
| 2026-04-22 03:07 | 37.65746 | -122.46461 | 4231 ft | 249 kts | 300° |
| 2026-04-22 03:07 | 37.66410 | -122.48370 | 5684 ft | 249 kts | 282° |
| 2026-04-22 03:08 | 37.66143 | -122.50519 | 6885 ft | 260 kts | 244° |
| 2026-04-22 03:08 | 37.64925 | -122.52129 | 7998 ft | 267 kts | 208° |
| 2026-04-22 03:08 | 37.63155 | -122.52771 | 9138 ft | 269 kts | 186° |
| 2026-04-22 03:08 | 37.61335 | -122.52830 | 10381 ft | 265 kts | 173° |
| 2026-04-22 03:09 | 37.59583 | -122.52412 | 11549 ft | 261 kts | 161° |
| 2026-04-22 03:09 | 37.57909 | -122.51524 | 12491 ft | 265 kts | 149° |
| 2026-04-22 03:09 | 37.56382 | -122.50202 | 13352 ft | 272 kts | 137° |
| 2026-04-22 03:09 | 37.55079 | -122.48544 | 14352 ft | 271 kts | 128° |
| 2026-04-22 03:10 | 37.53739 | -122.46909 | 15218 ft | 279 kts | 152° |
| 2026-04-22 03:10 | 37.51835 | -122.46423 | 15985 ft | 293 kts | 182° |
| 2026-04-22 03:10 | 37.49790 | -122.46695 | 16810 ft | 297 kts | 178° |
| 2026-04-22 03:10 | 37.47800 | -122.46282 | 17586 ft | 295 kts | 152° |
| 2026-04-22 03:11 | 37.46263 | -122.44681 | 18350 ft | 291 kts | 122° |
| 2026-04-22 03:11 | 37.45161 | -122.42539 | 19160 ft | 294 kts | 123° |
| 2026-04-22 03:11 | 37.43917 | -122.40504 | 19935 ft | 298 kts | 127° |
| 2026-04-22 03:11 | 37.42587 | -122.38513 | 20682 ft | 301 kts | 128° |
| 2026-04-22 03:12 | 37.41211 | -122.36530 | 21408 ft | 305 kts | 128° |
| 2026-04-22 03:12 | 37.35834 | -122.28941 | 23742 ft | 315 kts | 128° |
| 2026-04-22 03:12 | 37.32874 | -122.24783 | 24851 ft | 320 kts | 128° |
| 2026-04-22 03:13 | 37.27848 | -122.17740 | 26418 ft | 327 kts | 128° |
| 2026-04-22 03:13 | 37.21684 | -122.09118 | 27921 ft | 335 kts | 128° |
| 2026-04-22 03:13 | 37.15391 | -122.00346 | 29325 ft | 342 kts | 128° |
| 2026-04-22 03:13 | 37.09035 | -121.91502 | 30556 ft | 349 kts | 128° |
| 2026-04-22 03:14 | 37.02446 | -121.82374 | 31566 ft | 357 kts | 127° |
| 2026-04-22 03:14 | 36.95713 | -121.73063 | 32586 ft | 364 kts | 127° |
| 2026-04-22 03:14 | 36.86960 | -121.60976 | 33206 ft | 369 kts | 127° |
| 2026-04-22 03:14 | 36.80873 | -121.52610 | 33066 ft | 367 kts | 127° |
| 2026-04-22 03:15 | 36.77428 | -121.47890 | 33095 ft | 368 kts | 127° |
| 2026-04-22 03:15 | 36.73984 | -121.43174 | 33103 ft | 368 kts | 127° |
| 2026-04-22 03:16 | 36.70557 | -121.38488 | 33100 ft | 368 kts | 127° |
| 2026-04-22 03:16 | 36.67122 | -121.33798 | 33104 ft | 368 kts | 128° |
| 2026-04-22 03:17 | 36.63673 | -121.29094 | 33106 ft | 368 kts | 127° |
| 2026-04-22 03:17 | 36.60240 | -121.24418 | 33107 ft | 367 kts | 127° |
| 2026-04-22 03:18 | 36.56794 | -121.19730 | 33107 ft | 368 kts | 128° |
| 2026-04-22 03:18 | 36.53347 | -121.15047 | 33103 ft | 367 kts | 128° |
| 2026-04-22 03:19 | 36.49902 | -121.10372 | 33103 ft | 367 kts | 128° |
| 2026-04-22 03:19 | 36.48369 | -121.08292 | 33108 ft | 367 kts | 128° |
| 2026-04-22 03:20 | 36.44910 | -121.03612 | 33108 ft | 367 kts | 129° |
| 2026-04-22 03:20 | 36.41490 | -120.98993 | 33118 ft | 367 kts | 129° |
| 2026-04-22 03:21 | 36.38028 | -120.94318 | 33123 ft | 367 kts | 129° |
| 2026-04-22 03:21 | 36.34591 | -120.89694 | 33131 ft | 367 kts | 129° |
| 2026-04-22 03:22 | 36.31132 | -120.85043 | 33137 ft | 367 kts | 129° |
| 2026-04-22 03:22 | 36.27668 | -120.80389 | 33136 ft | 367 kts | 129° |
| 2026-04-22 03:23 | 36.24834 | -120.76585 | 33135 ft | 367 kts | 129° |
| 2026-04-22 03:23 | 36.21379 | -120.71956 | 33135 ft | 367 kts | 129° |
| 2026-04-22 03:24 | 35.87154 | -120.26468 | 33124 ft | 368 kts | 134° |
| 2026-04-22 03:24 | 35.84649 | -120.24364 | 33158 ft | 373 kts | 145° |
| 2026-04-22 03:24 | 35.82433 | -120.22698 | 33138 ft | 374 kts | 145° |
| 2026-04-22 03:25 | 35.78027 | -120.19375 | 33130 ft | 374 kts | 145° |
| 2026-04-22 03:25 | 35.73608 | -120.16047 | 33131 ft | 373 kts | 145° |
| 2026-04-22 03:26 | 35.69178 | -120.12714 | 33136 ft | 373 kts | 145° |
| 2026-04-22 03:26 | 35.64784 | -120.09400 | 33137 ft | 373 kts | 145° |
| 2026-04-22 03:27 | 35.60370 | -120.06069 | 33136 ft | 373 kts | 145° |
| 2026-04-22 03:27 | 35.48260 | -119.96951 | 33140 ft | 373 kts | 145° |
| 2026-04-22 03:28 | 35.26819 | -119.80558 | 33119 ft | 371 kts | 139° |
| 2026-04-22 03:28 | 35.22741 | -119.76698 | 33117 ft | 371 kts | 139° |
| 2026-04-22 03:29 | 35.18661 | -119.72868 | 33122 ft | 371 kts | 139° |
| 2026-04-22 03:29 | 35.14575 | -119.69053 | 33115 ft | 371 kts | 139° |
| 2026-04-22 03:30 | 35.10471 | -119.65224 | 33117 ft | 380 kts | 139° |
| 2026-04-22 03:30 | 35.08330 | -119.63228 | 33122 ft | 394 kts | 139° |
| 2026-04-22 03:30 | 35.06136 | -119.61185 | 33116 ft | 407 kts | 139° |
| 2026-04-22 03:31 | 35.01548 | -119.56916 | 33101 ft | 420 kts | 140° |
| 2026-04-22 03:31 | 34.99244 | -119.54773 | 32184 ft | 431 kts | 140° |
| 2026-04-22 03:31 | 34.96858 | -119.52550 | 30870 ft | 433 kts | 141° |
| 2026-04-22 03:32 | 34.94540 | -119.50398 | 29898 ft | 408 kts | 141° |
| 2026-04-22 03:32 | 34.92342 | -119.48367 | 29245 ft | 380 kts | 141° |
| 2026-04-22 03:32 | 34.90343 | -119.46545 | 28878 ft | 351 kts | 142° |
| 2026-04-22 03:32 | 34.88430 | -119.44841 | 28520 ft | 325 kts | 142° |
| 2026-04-22 03:33 | 34.86677 | -119.43278 | 28205 ft | 302 kts | 142° |
| 2026-04-22 03:33 | 34.85055 | -119.41832 | 27916 ft | 281 kts | 142° |
| 2026-04-22 03:33 | 34.83546 | -119.40486 | 27657 ft | 262 kts | 142° |
| 2026-04-22 03:33 | 34.82132 | -119.39226 | 27423 ft | 244 kts | 142° |
| 2026-04-22 03:34 | 34.80810 | -119.38046 | 27201 ft | 227 kts | 142° |
| 2026-04-22 03:34 | 34.79581 | -119.36950 | 26938 ft | 213 kts | 141° |
| 2026-04-22 03:34 | 34.78419 | -119.35912 | 26613 ft | 204 kts | 141° |
| 2026-04-22 03:34 | 34.77290 | -119.34905 | 26355 ft | 199 kts | 142° |
| 2026-04-22 03:35 | 34.76156 | -119.33890 | 25841 ft | 217 kts | 142° |
| 2026-04-22 03:35 | 34.74831 | -119.32707 | 25456 ft | 256 kts | 142° |
| 2026-04-22 03:35 | 34.73276 | -119.31336 | 25187 ft | 290 kts | 142° |
| 2026-04-22 03:35 | 34.71582 | -119.29842 | 25195 ft | 315 kts | 142° |
| 2026-04-22 03:36 | 34.69739 | -119.28213 | 25016 ft | 344 kts | 142° |
| 2026-04-22 03:36 | 34.67730 | -119.26430 | 24682 ft | 374 kts | 142° |
| 2026-04-22 03:36 | 34.65608 | -119.24548 | 24221 ft | 386 kts | 142° |
| 2026-04-22 03:36 | 34.63437 | -119.22622 | 23762 ft | 389 kts | 142° |
| 2026-04-22 03:37 | 34.61250 | -119.20686 | 23291 ft | 386 kts | 142° |
| 2026-04-22 03:37 | 34.59125 | -119.18808 | 22839 ft | 381 kts | 142° |
| 2026-04-22 03:37 | 34.57008 | -119.16941 | 22382 ft | 376 kts | 142° |
| 2026-04-22 03:37 | 34.54892 | -119.15080 | 21887 ft | 372 kts | 142° |
| 2026-04-22 03:38 | 34.52817 | -119.13258 | 21406 ft | 368 kts | 142° |
| 2026-04-22 03:38 | 34.50769 | -119.11464 | 20930 ft | 365 kts | 142° |
| 2026-04-22 03:38 | 34.48709 | -119.09663 | 20446 ft | 361 kts | 142° |
| 2026-04-22 03:38 | 34.46695 | -119.07906 | 19984 ft | 360 kts | 142° |
| 2026-04-22 03:39 | 34.44673 | -119.06147 | 19509 ft | 359 kts | 142° |
| 2026-04-22 03:39 | 34.42641 | -119.04382 | 19030 ft | 357 kts | 142° |
| 2026-04-22 03:39 | 34.40651 | -119.02656 | 18562 ft | 354 kts | 142° |
| 2026-04-22 03:39 | 34.38655 | -119.00929 | 18094 ft | 351 kts | 142° |
| 2026-04-22 03:40 | 34.36699 | -118.99240 | 17635 ft | 347 kts | 142° |
| 2026-04-22 03:40 | 34.34726 | -118.97540 | 17101 ft | 345 kts | 142° |
| 2026-04-22 03:40 | 34.32790 | -118.95875 | 16657 ft | 341 kts | 142° |
| 2026-04-22 03:40 | 34.30899 | -118.94255 | 16220 ft | 334 kts | 142° |
| 2026-04-22 03:41 | 34.29004 | -118.92635 | 15804 ft | 333 kts | 143° |
| 2026-04-22 03:41 | 34.27129 | -118.91033 | 15391 ft | 332 kts | 143° |
| 2026-04-22 03:41 | 34.25259 | -118.89438 | 14952 ft | 324 kts | 143° |
| 2026-04-22 03:41 | 34.23509 | -118.87952 | 14503 ft | 297 kts | 142° |
| 2026-04-22 03:42 | 34.21814 | -118.86516 | 14158 ft | 295 kts | 142° |
| 2026-04-22 03:42 | 34.20158 | -118.85112 | 13785 ft | 292 kts | 142° |
| 2026-04-22 03:42 | 34.18507 | -118.83713 | 13413 ft | 289 kts | 142° |
| 2026-04-22 03:42 | 34.16871 | -118.82327 | 13049 ft | 286 kts | 142° |
| 2026-04-22 03:43 | 34.15263 | -118.80962 | 12668 ft | 283 kts | 141° |
| 2026-04-22 03:43 | 34.13991 | -118.79223 | 12304 ft | 277 kts | 123° |
| 2026-04-22 03:43 | 34.12787 | -118.77407 | 11939 ft | 275 kts | 131° |
| 2026-04-22 03:43 | 34.11477 | -118.75768 | 11577 ft | 273 kts | 134° |
| 2026-04-22 03:44 | 34.10106 | -118.74181 | 11213 ft | 271 kts | 135° |
| 2026-04-22 03:44 | 34.08736 | -118.72652 | 10856 ft | 269 kts | 136° |
| 2026-04-22 03:44 | 34.07358 | -118.71137 | 10501 ft | 267 kts | 137° |
| 2026-04-22 03:44 | 34.05989 | -118.69645 | 10150 ft | 265 kts | 137° |
| 2026-04-22 03:45 | 34.04640 | -118.68179 | 9807 ft | 263 kts | 137° |
| 2026-04-22 03:45 | 34.03529 | -118.66461 | 9426 ft | 263 kts | 113° |
| 2026-04-22 03:45 | 34.03022 | -118.64350 | 9092 ft | 262 kts | 105° |
| 2026-04-22 03:45 | 34.02684 | -118.62207 | 8731 ft | 262 kts | 102° |
| 2026-04-22 03:46 | 34.02417 | -118.60017 | 8371 ft | 262 kts | 100° |
| 2026-04-22 03:46 | 34.02185 | -118.57847 | 8020 ft | 261 kts | 99° |
| 2026-04-22 03:46 | 34.01968 | -118.55684 | 7581 ft | 264 kts | 99° |
| 2026-04-22 03:46 | 34.01752 | -118.53451 | 6969 ft | 271 kts | 99° |
| 2026-04-22 03:47 | 34.01546 | -118.51269 | 6327 ft | 257 kts | 99° |
| 2026-04-22 03:47 | 34.01352 | -118.49200 | 5746 ft | 245 kts | 99° |
| 2026-04-22 03:47 | 34.01164 | -118.47211 | 5186 ft | 235 kts | 99° |
| 2026-04-22 03:47 | 34.01261 | -118.45267 | 4611 ft | 232 kts | 83° |
| 2026-04-22 03:48 | 34.01508 | -118.43360 | 4045 ft | 228 kts | 83° |
| 2026-04-22 03:48 | 34.01781 | -118.41522 | 3503 ft | 225 kts | 82° |
| 2026-04-22 03:48 | 34.02075 | -118.39687 | 2967 ft | 223 kts | 81° |
| 2026-04-22 03:48 | 34.02374 | -118.37891 | 2708 ft | 214 kts | 81° |
| 2026-04-22 03:49 | 34.02663 | -118.36131 | 2608 ft | 216 kts | 82° |
| 2026-04-22 03:49 | 34.02871 | -118.34347 | 2620 ft | 216 kts | 85° |
| 2026-04-22 03:49 | 34.03056 | -118.32517 | 2638 ft | 220 kts | 85° |
| 2026-04-22 03:49 | 34.03242 | -118.30694 | 2662 ft | 220 kts | 85° |
| 2026-04-22 03:50 | 34.03433 | -118.28851 | 2662 ft | 221 kts | 85° |
| 2026-04-22 03:50 | 34.03625 | -118.27000 | 2673 ft | 225 kts | 85° |
| 2026-04-22 03:50 | 34.03821 | -118.25128 | 2661 ft | 224 kts | 85° |
| 2026-04-22 03:50 | 34.04005 | -118.23269 | 2655 ft | 223 kts | 88° |
| 2026-04-22 03:51 | 34.03575 | -118.21566 | 2642 ft | 215 kts | 132° |
| 2026-04-22 03:51 | 34.02316 | -118.20692 | 2652 ft | 210 kts | 174° |
| 2026-04-22 03:51 | 34.00936 | -118.21076 | 2654 ft | 207 kts | 214° |
| 2026-04-22 03:51 | 33.99987 | -118.22317 | 2691 ft | 193 kts | 231° |
| 2026-04-22 03:52 | 33.99198 | -118.23531 | 2634 ft | 174 kts | 232° |
| 2026-04-22 03:52 | 33.98481 | -118.24653 | 2557 ft | 168 kts | 232° |
| 2026-04-22 03:52 | 33.97774 | -118.25756 | 2394 ft | 165 kts | 233° |
| 2026-04-22 03:52 | 33.97194 | -118.26949 | 2266 ft | 160 kts | 243° |
| 2026-04-22 03:53 | 33.96704 | -118.28158 | 2097 ft | 157 kts | 243° |
| 2026-04-22 03:53 | 33.96358 | -118.29327 | 1808 ft | 143 kts | 261° |
| 2026-04-22 03:53 | 33.96260 | -118.30464 | 1572 ft | 134 kts | 262° |
| 2026-04-22 03:53 | 33.96161 | -118.31576 | 1373 ft | 131 kts | 262° |
| 2026-04-22 03:54 | 33.96048 | -118.32648 | 1203 ft | 130 kts | 259° |
| 2026-04-22 03:54 | 33.95898 | -118.33732 | 1088 ft | 133 kts | 259° |
| 2026-04-22 03:54 | 33.95744 | -118.34863 | 990 ft | 139 kts | 261° |
| 2026-04-22 03:54 | 33.95642 | -118.36032 | 860 ft | 141 kts | 263° |
| 2026-04-22 03:55 | 33.95545 | -118.37215 | 662 ft | 142 kts | 263° |
| 2026-04-22 03:55 | 33.95423 | -118.38365 | 463 ft | 132 kts | 261° |
| 2026-04-22 03:55 | 33.95296 | -118.39419 | 257 ft | 126 kts | 261° |
| 2026-04-22 03:55 | 33.95188 | -118.40423 | 119 ft | 115 kts | 262° |
| 2026-04-22 03:56 | 33.95103 | -118.41245 | 123 ft | 65 kts | 265° |
| 2026-04-22 03:56 | 33.95067 | -118.41585 | 121 ft | 10 kts | 261° |
| 2026-04-22 03:56 | 33.95044 | -118.41704 | 120 ft | 17 kts | 252° |
| 2026-04-22 03:56 | 33.94994 | -118.41827 | 120 ft | 8 kts | 236° |
| 2026-04-22 03:57 | 33.94968 | -118.41873 | 120 ft | 5 kts | 236° |
| 2026-04-22 03:57 | 33.94951 | -118.41904 | 120 ft | 6 kts | 234° |
| 2026-04-22 03:57 | 33.94941 | -118.41921 | 120 ft | 0 kts | 234° |